Time;durP1;ratioP1;P1;durP2;ratioP2;P2;SDS_P1;SDS_P2;PMS_P1;PMS_P2;Temp;Humidity;BMP_temperature;BMP_pressure;BME280_temperature;BME280_humidity;BME280_pressure;Samples;Min_cycle;Max_cycle;Signal;HPM_P1;HPM_P2
2022/10/15 00:01:11;;;;;;;0.17;0.17;;;;;;;11.20;90.61;99623.50;5112837;28;20205;-59
2022/10/15 00:03:39;;;;;;;0.17;0.17;;;;;;;11.26;90.70;99633.38;5112794;28;20205;-58
2022/10/15 00:06:08;;;;;;;0.50;0.50;;;;;;;11.09;90.96;99627.59;5112735;28;20225;-60
2022/10/15 00:08:36;;;;;;;0.00;0.00;;;;;;;11.13;91.17;99624.84;5112764;28;20244;-58
2022/10/15 00:11:05;;;;;;;0.23;0.23;;;;;;;11.06;91.89;99635.47;5112469;28;20205;-58
2022/10/15 00:13:32;;;;;;;0.30;0.30;;;;;;;11.10;91.53;99628.41;5112483;28;20251;-60
2022/10/15 00:15:59;;;;;;;0.20;0.20;;;;;;;11.02;91.50;99631.47;5112509;28;20216;-58
2022/10/15 00:18:26;;;;;;;0.50;0.50;;;;;;;11.01;91.30;99624.72;5112343;28;20222;-60
2022/10/15 00:20:53;;;;;;;0.50;0.50;;;;;;;10.94;91.09;99623.50;5112565;28;20193;-60
2022/10/15 00:23:20;;;;;;;0.33;0.33;;;;;;;10.90;91.39;99621.22;5112178;28;20231;-60
2022/10/15 00:25:48;;;;;;;0.37;0.37;;;;;;;10.89;91.26;99620.41;5112076;28;20281;-59
2022/10/15 00:28:15;;;;;;;0.20;0.20;;;;;;;10.83;91.50;99621.63;5112088;28;20229;-60
2022/10/15 00:30:42;;;;;;;0.07;0.07;;;;;;;10.76;91.86;99624.66;5112113;28;20692;-58
2022/10/15 00:33:09;;;;;;;0.20;0.20;;;;;;;10.82;91.27;99619.16;5112509;28;20213;-60
2022/10/15 00:35:36;;;;;;;0.77;0.70;;;;;;;10.80;91.60;99618.44;5112605;28;20225;-59
2022/10/15 00:38:03;;;;;;;0.40;0.40;;;;;;;10.75;91.69;99621.28;5111853;28;20611;-58
2022/10/15 00:40:29;;;;;;;0.30;0.30;;;;;;;10.80;91.48;99621.00;5111990;28;20203;-58
2022/10/15 00:42:58;;;;;;;0.67;0.67;;;;;;;10.79;91.44;99611.69;5111814;28;20221;-60
2022/10/15 00:45:24;;;;;;;0.10;0.10;;;;;;;10.77;91.64;99616.91;5112093;28;20224;-60
2022/10/15 00:47:53;;;;;;;1.07;0.30;;;;;;;10.78;91.67;99617.72;5111630;28;20697;-59
2022/10/15 00:50:22;;;;;;;0.20;0.20;;;;;;;10.76;91.86;99607.59;5111762;28;20198;-58
2022/10/15 00:52:59;;;;;;;0.33;0.33;;;;;;;10.74;91.81;99612.00;5111502;28;20224;-58
2022/10/15 00:55:30;;;;;;;0.23;0.23;;;;;;;10.77;91.73;99600.75;5111948;28;20544;-59
2022/10/15 00:58:00;;;;;;;0.10;0.10;;;;;;;10.73;91.70;99596.72;5111911;28;20728;-59
2022/10/15 01:00:28;;;;;;;0.30;0.30;;;;;;;10.72;92.03;99597.66;5111541;27;20677;-58
2022/10/15 01:02:55;;;;;;;0.10;0.10;;;;;;;10.69;92.23;99597.84;5111400;28;20285;-60
2022/10/15 01:05:23;;;;;;;0.10;0.10;;;;;;;10.67;92.47;99604.81;5111446;28;20229;-58
2022/10/15 01:07:50;;;;;;;0.23;0.23;;;;;;;10.65;92.46;99597.25;5110510;28;20679;-59
2022/10/15 01:10:20;;;;;;;0.20;0.20;;;;;;;10.63;92.04;99599.88;5111377;28;20205;-58
2022/10/15 01:12:57;;;;;;;0.10;0.10;;;;;;;10.73;91.87;99599.28;5111684;27;20224;-60
2022/10/15 01:15:29;;;;;;;0.47;0.37;;;;;;;10.57;92.22;99597.72;5111374;28;20233;-59
2022/10/15 01:18:02;;;;;;;0.20;0.20;;;;;;;10.54;93.09;99599.66;5111495;28;20670;-58
2022/10/15 01:20:55;;;;;;;0.53;0.50;;;;;;;10.48;93.46;99603.44;5111255;28;20209;-58
2022/10/15 01:24:07;;;;;;;0.20;0.20;;;;;;;10.48;93.14;99606.00;5111197;28;20229;-60
2022/10/15 01:26:55;;;;;;;0.20;0.20;;;;;;;10.56;92.49;99608.03;5110885;28;20247;-59
2022/10/15 01:29:43;;;;;;;0.30;0.20;;;;;;;10.51;92.43;99610.09;5111291;28;20205;-58
2022/10/15 01:32:19;;;;;;;0.20;0.20;;;;;;;10.52;92.58;99599.75;5111047;28;20597;-60
2022/10/15 01:34:54;;;;;;;0.13;0.13;;;;;;;10.48;92.36;99605.16;5111171;28;20318;-58
2022/10/15 01:37:27;;;;;;;0.40;0.30;;;;;;;10.48;92.37;99605.16;5110867;28;20221;-59
2022/10/15 01:39:59;;;;;;;0.20;0.20;;;;;;;10.55;91.96;99607.22;5111431;28;20369;-60
2022/10/15 01:42:32;;;;;;;0.20;0.20;;;;;;;10.43;91.79;99603.72;5110990;28;20213;-59
2022/10/15 01:45:07;;;;;;;0.30;0.30;;;;;;;10.35;92.36;99608.47;5110914;28;20619;-59
2022/10/15 01:47:37;;;;;;;0.10;0.10;;;;;;;10.39;91.93;99602.28;5110756;28;20231;-59
2022/10/15 01:50:07;;;;;;;0.10;0.10;;;;;;;10.40;92.01;99606.47;5110758;28;20201;-58
2022/10/15 01:52:38;;;;;;;3.80;0.57;;;;;;;10.36;92.23;99611.88;5111067;28;20593;-59
2022/10/15 01:55:09;;;;;;;1.50;0.20;;;;;;;10.26;92.82;99610.78;5110695;28;20205;-58
2022/10/15 01:57:37;;;;;;;0.30;0.30;;;;;;;10.30;92.54;99614.81;5111069;28;20605;-60
2022/10/15 02:00:05;;;;;;;0.20;0.20;;;;;;;10.32;92.49;99620.63;5110837;28;20201;-59
2022/10/15 02:02:31;;;;;;;0.20;0.20;;;;;;;10.29;93.04;99615.72;5110409;28;20221;-58
2022/10/15 02:05:00;;;;;;;0.30;0.30;;;;;;;10.30;92.50;99619.94;5110435;28;20236;-58
2022/10/15 02:07:37;;;;;;;0.20;0.20;;;;;;;10.23;92.94;99610.97;5110190;28;20232;-60
2022/10/15 02:10:11;;;;;;;0.30;0.30;;;;;;;10.30;93.09;99617.38;5110512;28;20228;-58
2022/10/15 02:12:52;;;;;;;0.30;0.30;;;;;;;10.31;93.27;99608.78;5110460;28;20708;-59
2022/10/15 02:15:28;;;;;;;0.20;0.20;;;;;;;10.29;93.19;99615.72;5110316;28;20585;-60
2022/10/15 02:18:02;;;;;;;0.63;0.60;;;;;;;10.17;93.75;99602.75;5110327;28;20712;-58
2022/10/15 02:20:36;;;;;;;0.10;0.10;;;;;;;10.22;93.68;99609.34;5109900;28;20201;-60
2022/10/15 02:23:07;;;;;;;0.33;0.33;;;;;;;10.17;93.81;99601.94;5110178;28;20296;-60
2022/10/15 02:25:39;;;;;;;0.77;0.23;;;;;;;10.02;93.91;99608.81;5110127;28;20232;-58
2022/10/15 02:28:08;;;;;;;0.10;0.10;;;;;;;9.98;93.90;99603.09;5110423;28;20236;-60
2022/10/15 02:30:37;;;;;;;0.10;0.10;;;;;;;9.93;93.57;99617.06;5110189;28;20200;-59
2022/10/15 02:33:04;;;;;;;0.60;0.40;;;;;;;9.84;93.93;99620.19;5110584;28;20220;-60
2022/10/15 02:35:34;;;;;;;1.00;0.50;;;;;;;9.79;94.02;99622.19;5109997;28;20201;-59
2022/10/15 02:38:06;;;;;;;0.20;0.20;;;;;;;9.81;93.39;99633.13;5110040;28;20221;-60
2022/10/15 02:40:35;;;;;;;0.27;0.27;;;;;;;9.80;93.58;99613.59;5110186;28;20208;-58
2022/10/15 02:43:06;;;;;;;0.30;0.30;;;;;;;9.69;94.11;99627.84;5109788;28;20225;-59
2022/10/15 02:45:33;;;;;;;0.20;0.20;;;;;;;9.60;94.45;99623.28;5110204;28;20252;-58
2022/10/15 02:48:00;;;;;;;0.50;0.50;;;;;;;9.60;94.29;99622.44;5109965;28;20213;-59
2022/10/15 02:50:26;;;;;;;0.50;0.50;;;;;;;9.49;94.32;99621.38;5110269;28;20201;-58
2022/10/15 02:52:55;;;;;;;0.83;0.50;;;;;;;9.53;93.92;99627.09;5110098;28;20224;-59
2022/10/15 02:55:21;;;;;;;0.27;0.27;;;;;;;9.26;94.54;99620.16;5109948;28;20700;-60
2022/10/15 02:57:48;;;;;;;0.30;0.17;;;;;;;9.22;94.24;99628.91;5109880;28;20217;-60
2022/10/15 03:00:17;;;;;;;0.20;0.20;;;;;;;9.08;94.54;99634.00;5109892;28;20205;-59
2022/10/15 03:02:44;;;;;;;1.60;0.60;;;;;;;9.10;94.05;99639.81;5109613;28;20648;-58
2022/10/15 03:05:11;;;;;;;0.73;0.73;;;;;;;9.01;93.97;99630.94;5109887;28;20217;-58
2022/10/15 03:07:38;;;;;;;1.30;0.53;;;;;;;8.90;94.09;99627.38;5110172;28;20217;-58
2022/10/15 03:10:07;;;;;;;0.20;0.20;;;;;;;8.66;94.72;99640.56;5109738;28;20202;-58
2022/10/15 03:12:34;;;;;;;0.30;0.17;;;;;;;8.53;95.98;99629.44;5109724;28;20213;-59
2022/10/15 03:15:01;;;;;;;0.13;0.13;;;;;;;8.55;96.46;99628.44;5109788;28;20203;-59
2022/10/15 03:17:28;;;;;;;0.30;0.30;;;;;;;8.48;96.39;99631.41;5109679;28;20225;-58
2022/10/15 03:19:54;;;;;;;0.17;0.17;;;;;;;8.53;96.11;99632.81;5109818;28;20204;-59
2022/10/15 03:22:21;;;;;;;0.10;0.10;;;;;;;8.49;95.88;99635.59;5109374;28;20231;-58
2022/10/15 03:24:48;;;;;;;0.20;0.20;;;;;;;8.45;96.07;99629.03;5109713;28;20579;-59
2022/10/15 03:27:16;;;;;;;0.30;0.30;;;;;;;8.38;95.90;99631.91;5109550;28;20245;-59
2022/10/15 03:29:43;;;;;;;0.17;0.17;;;;;;;8.35;96.00;99632.06;5109822;28;20407;-59
2022/10/15 03:32:10;;;;;;;0.30;0.30;;;;;;;8.36;96.23;99633.69;5110705;28;20221;-59
2022/10/15 03:34:37;;;;;;;0.20;0.20;;;;;;;8.32;96.23;99641.56;5113708;28;20216;-58
2022/10/15 03:37:04;;;;;;;0.10;0.10;;;;;;;8.27;96.27;99634.19;5113200;28;20229;-59
2022/10/15 03:39:30;;;;;;;0.77;0.57;;;;;;;8.24;96.13;99642.00;5113131;28;20209;-58
2022/10/15 03:41:57;;;;;;;0.30;0.30;;;;;;;8.30;95.89;99641.66;5113101;28;20225;-58
2022/10/15 03:44:25;;;;;;;5.17;0.73;;;;;;;8.25;95.41;99643.63;5113045;28;20208;-59
2022/10/15 03:46:52;;;;;;;0.60;0.60;;;;;;;8.18;95.40;99634.69;5113327;28;20233;-58
2022/10/15 03:49:19;;;;;;;0.40;0.40;;;;;;;8.10;96.11;99636.81;5113097;28;20581;-59
2022/10/15 03:51:46;;;;;;;0.43;0.43;;;;;;;8.03;96.38;99641.41;5113021;27;20213;-58
2022/10/15 03:54:13;;;;;;;0.77;0.63;;;;;;;8.03;96.40;99641.41;5112962;28;20197;-59
2022/10/15 03:56:40;;;;;;;1.00;0.63;;;;;;;8.08;96.37;99643.72;5112947;28;20221;-58
2022/10/15 03:59:06;;;;;;;0.73;0.73;;;;;;;8.03;96.41;99640.56;5112942;28;20205;-58
2022/10/15 04:01:35;;;;;;;0.90;0.67;;;;;;;8.03;96.28;99641.41;5113085;28;20585;-59
2022/10/15 04:04:01;;;;;;;0.47;0.47;;;;;;;8.00;96.61;99643.28;5112808;27;20620;-58
2022/10/15 04:06:28;;;;;;;0.23;0.23;;;;;;;8.05;96.27;99638.78;5112450;28;20240;-59
2022/10/15 04:08:55;;;;;;;0.40;0.40;;;;;;;7.82;96.25;99648.44;5113033;28;20616;-59
2022/10/15 04:11:22;;;;;;;0.20;0.20;;;;;;;7.85;96.18;99648.31;5112365;28;20197;-59
2022/10/15 04:13:49;;;;;;;0.47;0.47;;;;;;;7.81;96.18;99651.88;5112565;28;20205;-59
2022/10/15 04:16:17;;;;;;;0.30;0.30;;;;;;;7.76;96.95;99656.38;5112671;28;20852;-59
2022/10/15 04:18:45;;;;;;;0.33;0.33;;;;;;;7.81;95.77;99656.97;5112338;28;20585;-58
2022/10/15 04:21:12;;;;;;;0.47;0.47;;;;;;;7.85;95.47;99662.72;5112434;28;20201;-58
2022/10/15 04:23:39;;;;;;;0.27;0.27;;;;;;;7.85;95.29;99661.03;5112989;28;20582;-58
2022/10/15 04:26:06;;;;;;;0.33;0.33;;;;;;;7.90;94.74;99666.69;5112232;28;20240;-59
2022/10/15 04:28:33;;;;;;;0.27;0.27;;;;;;;7.92;94.25;99659.78;5112222;28;20217;-58
2022/10/15 04:31:01;;;;;;;0.20;0.20;;;;;;;7.81;95.03;99662.06;5112078;28;20193;-59
2022/10/15 04:33:28;;;;;;;0.27;0.27;;;;;;;7.80;94.82;99660.44;5112001;28;20232;-58
2022/10/15 04:36:00;;;;;;;0.20;0.20;;;;;;;7.88;94.45;99665.13;5111836;28;20197;-59
2022/10/15 04:38:27;;;;;;;0.20;0.20;;;;;;;7.92;93.58;99664.88;5111994;28;20232;-59
2022/10/15 04:41:02;;;;;;;0.20;0.20;;;;;;;7.89;94.27;99675.22;5111949;28;20193;-58
2022/10/15 04:43:29;;;;;;;0.20;0.20;;;;;;;7.94;93.49;99667.34;5111518;28;20220;-59
2022/10/15 04:45:57;;;;;;;0.23;0.23;;;;;;;7.87;93.95;99671.94;5111874;28;20729;-58
2022/10/15 04:48:24;;;;;;;0.50;0.43;;;;;;;7.88;93.29;99678.69;5111897;28;20677;-59
2022/10/15 04:50:51;;;;;;;0.27;0.27;;;;;;;7.94;93.78;99683.47;5111856;28;20503;-59
2022/10/15 04:53:20;;;;;;;0.20;0.20;;;;;;;7.96;93.36;99685.09;5111802;28;20618;-59
2022/10/15 04:55:47;;;;;;;1.03;0.20;;;;;;;7.93;93.14;99691.16;5111759;28;20680;-58
2022/10/15 04:58:14;;;;;;;0.50;0.50;;;;;;;7.92;93.37;99690.34;5111496;28;20220;-58
2022/10/15 05:00:41;;;;;;;0.20;0.20;;;;;;;8.02;92.81;99693.22;5112073;28;20196;-58
2022/10/15 05:03:08;;;;;;;0.40;0.40;;;;;;;8.01;93.11;99693.31;5111514;28;20287;-58
2022/10/15 05:05:35;;;;;;;0.40;0.40;;;;;;;8.12;92.25;99698.69;5111659;28;20199;-59
2022/10/15 05:08:02;;;;;;;0.10;0.10;;;;;;;8.09;92.14;99696.31;5111147;28;20216;-58
2022/10/15 05:10:31;;;;;;;2.13;0.40;;;;;;;8.12;91.90;99703.78;5111510;27;20201;-59
2022/10/15 05:12:58;;;;;;;0.30;0.30;;;;;;;8.25;91.91;99709.03;5111200;28;20217;-58
2022/10/15 05:15:26;;;;;;;0.13;0.13;;;;;;;8.32;91.64;99711.19;5111737;28;20216;-59
2022/10/15 05:17:53;;;;;;;0.10;0.10;;;;;;;8.36;91.46;99706.75;5111078;28;20220;-59
2022/10/15 05:20:20;;;;;;;0.20;0.20;;;;;;;8.37;91.44;99716.03;5111359;28;20221;-58
2022/10/15 05:22:46;;;;;;;0.20;0.20;;;;;;;8.41;91.18;99715.00;5111246;28;20221;-59
2022/10/15 05:25:13;;;;;;;0.50;0.27;;;;;;;8.43;91.17;99717.47;5111693;28;20642;-58
2022/10/15 05:27:42;;;;;;;0.20;0.20;;;;;;;8.50;91.50;99721.34;5111214;28;20256;-59
2022/10/15 05:30:09;;;;;;;0.30;0.30;;;;;;;8.72;90.35;99711.63;5111804;28;20205;-58
2022/10/15 05:32:36;;;;;;;1.50;0.60;;;;;;;8.69;90.40;99721.97;5111350;28;20214;-58
2022/10/15 05:35:03;;;;;;;0.87;0.43;;;;;;;8.89;89.83;99722.63;5111311;28;20204;-59
2022/10/15 05:37:30;;;;;;;0.20;0.20;;;;;;;9.07;88.48;99726.69;5111035;28;20228;-58
2022/10/15 05:39:57;;;;;;;3.70;0.63;;;;;;;9.26;88.00;99727.31;5110935;28;20271;-59
2022/10/15 05:42:24;;;;;;;0.80;0.70;;;;;;;9.51;87.48;99720.81;5110661;28;20217;-58
2022/10/15 05:44:52;;;;;;;2.20;1.03;;;;;;;9.68;87.00;99725.75;5110860;28;20193;-58
2022/10/15 05:47:19;;;;;;;0.50;0.50;;;;;;;9.90;84.38;99730.44;5110828;28;20225;-59
2022/10/15 05:49:46;;;;;;;0.90;0.77;;;;;;;10.05;84.16;99733.81;5110883;28;20577;-58
2022/10/15 05:52:12;;;;;;;0.27;0.27;;;;;;;10.39;82.44;99731.81;5110639;28;20217;-59
2022/10/15 05:54:39;;;;;;;0.87;0.80;;;;;;;10.55;81.08;99734.25;5110417;28;20198;-58
2022/10/15 05:57:06;;;;;;;0.40;0.40;;;;;;;10.74;80.68;99739.06;5110512;28;20224;-59
2022/10/15 05:59:33;;;;;;;0.30;0.30;;;;;;;11.03;79.31;99735.47;5110535;28;20201;-58
2022/10/15 06:02:01;;;;;;;0.73;0.73;;;;;;;11.10;77.73;99741.84;5110605;28;20209;-60
2022/10/15 06:04:28;;;;;;;0.17;0.17;;;;;;;11.30;77.60;99748.22;5110466;28;20205;-59
2022/10/15 06:06:55;;;;;;;0.27;0.27;;;;;;;11.28;75.33;99744.94;5110443;28;20240;-58
2022/10/15 06:09:22;;;;;;;0.70;0.70;;;;;;;11.61;75.38;99750.56;5110396;28;20205;-58
2022/10/15 06:11:49;;;;;;;0.63;0.63;;;;;;;11.68;75.27;99742.34;5110259;28;20287;-58
2022/10/15 06:14:16;;;;;;;0.80;0.60;;;;;;;11.87;73.74;99747.09;5110290;28;20216;-58
2022/10/15 06:16:43;;;;;;;0.30;0.30;;;;;;;11.98;72.68;99749.78;5110298;28;20217;-59
2022/10/15 06:19:11;;;;;;;0.90;0.80;;;;;;;12.24;72.50;99747.16;5110260;28;20212;-59
2022/10/15 06:21:38;;;;;;;0.67;0.43;;;;;;;12.57;72.38;99753.47;5110393;28;20236;-59
2022/10/15 06:24:05;;;;;;;0.50;0.50;;;;;;;12.80;70.00;99752.66;5110473;28;20204;-59
2022/10/15 06:26:32;;;;;;;0.97;0.70;;;;;;;12.83;69.11;99760.16;5108608;28;20240;-59
2022/10/15 06:28:59;;;;;;;2.00;1.23;;;;;;;12.81;69.23;99759.44;5110122;28;20206;-59
2022/10/15 06:31:26;;;;;;;0.80;0.80;;;;;;;12.87;68.40;99768.44;5110151;28;20204;-60
2022/10/15 06:33:53;;;;;;;0.67;0.60;;;;;;;13.22;69.65;99772.81;5110131;28;20207;-58
2022/10/15 06:36:23;;;;;;;0.50;0.50;;;;;;;13.47;66.31;99766.75;5109689;28;20205;-58
2022/10/15 06:38:50;;;;;;;0.93;0.77;;;;;;;13.55;66.79;99767.78;5110284;28;20211;-59
2022/10/15 06:41:17;;;;;;;0.33;0.33;;;;;;;13.63;65.28;99767.22;5109944;28;20195;-61
2022/10/15 06:43:44;;;;;;;0.53;0.53;;;;;;;13.72;64.76;99774.25;5110332;28;20205;-60
2022/10/15 06:46:12;;;;;;;0.60;0.60;;;;;;;13.91;64.05;99770.34;5110026;28;20653;-60
2022/10/15 06:48:38;;;;;;;0.77;0.77;;;;;;;14.06;63.58;99760.63;5110033;28;20197;-59
2022/10/15 06:51:06;;;;;;;1.03;0.77;;;;;;;14.15;63.25;99763.31;5110122;28;20209;-61
2022/10/15 06:53:34;;;;;;;3.03;0.73;;;;;;;14.22;62.23;99774.78;5109842;28;20227;-60
2022/10/15 06:56:03;;;;;;;0.87;0.80;;;;;;;14.27;61.82;99767.53;5109950;28;20189;-60
2022/10/15 06:58:30;;;;;;;0.70;0.70;;;;;;;14.31;61.52;99772.44;5109643;28;20218;-62
2022/10/15 07:01:00;;;;;;;0.60;0.60;;;;;;;14.67;60.11;99776.53;5110178;28;20191;-63
2022/10/15 07:03:27;;;;;;;0.33;0.33;;;;;;;14.80;59.31;99778.94;5109674;28;20222;-60
2022/10/15 07:05:55;;;;;;;0.53;0.43;;;;;;;14.91;58.68;99776.34;5110280;28;20226;-62
2022/10/15 07:08:22;;;;;;;0.63;0.63;;;;;;;15.01;59.13;99774.69;5113568;28;20233;-60
2022/10/15 07:10:50;;;;;;;0.70;0.70;;;;;;;15.05;58.13;99773.50;5113653;28;20299;-59
2022/10/15 07:13:17;;;;;;;0.73;0.60;;;;;;;15.16;58.78;99775.22;5113738;28;20218;-60
2022/10/15 07:15:45;;;;;;;2.20;1.10;;;;;;;15.46;59.04;99765.94;5114143;28;20567;-63
2022/10/15 07:18:12;;;;;;;0.87;0.87;;;;;;;15.57;57.97;99774.44;5113656;28;20217;-63
2022/10/15 07:20:38;;;;;;;0.77;0.77;;;;;;;15.58;56.84;99773.47;5113775;28;20224;-60
2022/10/15 07:23:05;;;;;;;0.90;0.83;;;;;;;15.77;56.01;99775.41;5113434;28;20223;-61
2022/10/15 07:25:32;;;;;;;0.60;0.60;;;;;;;15.73;56.36;99780.91;5113532;28;20200;-63
2022/10/15 07:28:01;;;;;;;1.00;0.90;;;;;;;15.96;56.62;99777.25;5113642;28;20233;-62
2022/10/15 07:30:28;;;;;;;0.57;0.50;;;;;;;16.13;55.38;99787.91;5113884;28;20212;-60
2022/10/15 07:32:56;;;;;;;0.57;0.57;;;;;;;16.01;56.29;99782.84;5113233;28;20627;-60
2022/10/15 07:35:22;;;;;;;0.60;0.60;;;;;;;15.75;56.22;99790.16;5113504;28;20257;-62
2022/10/15 07:37:50;;;;;;;1.17;0.93;;;;;;;15.49;56.93;99800.00;5113422;28;20247;-62
2022/10/15 07:40:17;;;;;;;0.90;0.90;;;;;;;15.65;56.34;99798.75;5113330;28;20352;-62
2022/10/15 07:42:44;;;;;;;0.90;0.77;;;;;;;16.04;57.94;99802.41;5113145;28;20611;-58
2022/10/15 07:45:13;;;;;;;0.50;0.50;;;;;;;16.65;54.86;99801.56;5113201;28;20205;-61
2022/10/15 07:47:40;;;;;;;1.47;1.13;;;;;;;16.73;55.66;99804.28;5113086;28;20224;-59
2022/10/15 07:50:08;;;;;;;1.20;1.00;;;;;;;17.02;54.47;99800.97;5113254;27;20288;-63
2022/10/15 07:52:35;;;;;;;0.67;0.63;;;;;;;17.37;52.94;99809.00;5113515;28;20622;-63
2022/10/15 07:55:02;;;;;;;1.07;0.90;;;;;;;17.62;52.05;99801.63;5112898;28;20203;-59
2022/10/15 07:57:28;;;;;;;0.70;0.70;;;;;;;17.02;52.66;99808.72;5113059;28;20237;-61
2022/10/15 07:59:55;;;;;;;1.23;0.73;;;;;;;17.02;54.40;99819.06;5113133;28;20207;-61
2022/10/15 08:02:23;;;;;;;0.60;0.60;;;;;;;17.43;52.47;99811.03;5112804;28;20217;-60
2022/10/15 08:04:50;;;;;;;0.60;0.60;;;;;;;17.46;51.89;99816.91;5112792;28;20294;-64
2022/10/15 08:07:17;;;;;;;1.17;0.97;;;;;;;17.33;52.50;99810.22;5112894;28;20286;-63
2022/10/15 08:09:44;;;;;;;0.70;0.70;;;;;;;17.22;52.41;99805.22;5112648;28;20208;-62
2022/10/15 08:12:11;;;;;;;0.80;0.80;;;;;;;17.37;54.09;99809.00;5112920;28;20219;-61
2022/10/15 08:14:39;;;;;;;1.10;0.80;;;;;;;18.01;53.60;99811.94;5112594;28;20196;-59
2022/10/15 08:17:07;;;;;;;0.50;0.50;;;;;;;18.32;52.22;99802.97;5112469;28;20213;-63
2022/10/15 08:19:35;;;;;;;0.77;0.77;;;;;;;18.59;51.22;99809.09;5111794;28;20584;-59
2022/10/15 08:22:02;;;;;;;0.60;0.60;;;;;;;18.87;50.77;99815.09;5112510;28;20230;-62
2022/10/15 08:24:29;;;;;;;1.20;1.10;;;;;;;18.99;49.01;99813.09;5112647;28;20198;-59
2022/10/15 08:26:57;;;;;;;1.73;1.33;;;;;;;18.58;50.18;99810.03;5112315;28;20223;-59
2022/10/15 08:29:24;;;;;;;1.20;0.87;;;;;;;18.03;50.80;99810.00;5112623;28;20587;-63
2022/10/15 08:31:51;;;;;;;0.90;0.90;;;;;;;17.69;51.71;99807.88;5112095;28;20216;-60
2022/10/15 08:34:17;;;;;;;1.53;0.97;;;;;;;17.97;52.25;99805.38;5112370;28;20205;-64
2022/10/15 08:36:46;;;;;;;1.07;0.97;;;;;;;18.31;50.82;99801.31;5112129;28;20241;-65
2022/10/15 08:39:13;;;;;;;0.90;0.90;;;;;;;18.42;49.80;99807.28;5111154;28;20206;-66
2022/10/15 08:41:43;;;;;;;1.40;1.00;;;;;;;18.68;49.46;99816.00;5112001;28;20226;-66
2022/10/15 08:44:18;;;;;;;1.37;1.20;;;;;;;19.05;49.71;99806.50;5112062;28;20208;-66
2022/10/15 08:46:49;;;;;;;1.37;1.07;;;;;;;19.10;48.52;99805.09;5112142;28;20219;-60
2022/10/15 08:49:28;;;;;;;1.50;1.10;;;;;;;19.04;50.42;99800.53;5112186;28;20667;-65
2022/10/15 08:52:06;;;;;;;2.00;1.00;;;;;;;19.27;49.04;99805.25;5111533;28;20224;-61
2022/10/15 08:54:35;;;;;;;2.77;1.27;;;;;;;19.43;49.85;99802.78;5110773;28;20716;-61
2022/10/15 08:57:11;;;;;;;2.40;1.03;;;;;;;19.74;49.30;99802.41;5111314;28;20233;-61
2022/10/15 08:59:43;;;;;;;2.30;1.20;;;;;;;19.14;49.01;99806.47;5111755;27;20199;-62
2022/10/15 09:02:16;;;;;;;1.33;1.17;;;;;;;18.49;51.88;99806.53;5111601;28;20231;-63
2022/10/15 09:04:53;;;;;;;0.97;0.97;;;;;;;18.15;52.19;99805.47;5111739;28;20199;-67
2022/10/15 09:07:27;;;;;;;1.40;1.07;;;;;;;18.29;52.71;99803.22;5111235;28;20241;-67
2022/10/15 09:09:58;;;;;;;1.07;0.97;;;;;;;18.74;52.89;99805.09;5111396;27;20205;-63
2022/10/15 09:12:42;;;;;;;1.00;0.90;;;;;;;18.62;51.69;99806.22;5111027;28;20716;-63
2022/10/15 09:15:14;;;;;;;2.07;1.00;;;;;;;18.29;52.80;99800.63;5111429;28;20214;-63
2022/10/15 09:17:43;;;;;;;1.23;1.10;;;;;;;18.22;53.37;99802.19;5111302;28;20242;-68
2022/10/15 09:20:16;;;;;;;1.47;1.03;;;;;;;18.70;51.32;99802.88;5110988;28;20202;-64
2022/10/15 09:22:49;;;;;;;0.53;0.53;;;;;;;18.69;52.07;99806.44;5111301;28;20254;-63
2022/10/15 09:25:18;;;;;;;1.30;1.00;;;;;;;18.89;51.92;99794.22;5111190;28;20199;-62
2022/10/15 09:27:47;;;;;;;1.30;1.13;;;;;;;19.26;51.26;99808.81;5110870;28;20649;-67
2022/10/15 09:30:26;;;;;;;1.20;1.10;;;;;;;19.65;51.42;99809.31;5110086;28;20202;-63
2022/10/15 09:32:58;;;;;;;2.03;1.20;;;;;;;19.55;49.41;99808.56;5111249;28;20608;-62
2022/10/15 09:35:29;;;;;;;1.90;1.60;;;;;;;19.13;50.70;99804.81;5110979;28;20192;-67
2022/10/15 09:38:12;;;;;;;1.30;1.20;;;;;;;19.11;50.14;99798.97;5110812;28;20232;-66
2022/10/15 09:40:51;;;;;;;1.63;1.30;;;;;;;19.53;50.44;99806.13;5110926;28;20706;-66
2022/10/15 09:43:27;;;;;;;1.47;1.30;;;;;;;19.59;50.85;99804.69;5110742;28;20216;-65
2022/10/15 09:45:54;;;;;;;1.60;1.07;;;;;;;19.17;49.43;99800.16;5110303;28;20201;-63
2022/10/15 09:48:22;;;;;;;2.50;1.27;;;;;;;18.72;51.76;99796.59;5110144;28;20278;-65
2022/10/15 09:50:57;;;;;;;1.77;1.10;;;;;;;18.89;50.64;99796.81;5110660;28;20635;-65
2022/10/15 09:53:41;;;;;;;1.57;1.47;;;;;;;18.78;51.77;99790.88;5110409;28;20223;-63
2022/10/15 09:56:14;;;;;;;2.33;1.47;;;;;;;19.02;50.65;99792.06;5110812;27;20245;-63
2022/10/15 09:58:51;;;;;;;1.40;1.27;;;;;;;19.39;50.35;99791.91;5110629;28;20192;-67
2022/10/15 10:01:20;;;;;;;1.63;1.30;;;;;;;19.51;50.40;99789.88;5110461;28;20197;-63
2022/10/15 10:03:52;;;;;;;4.47;2.10;;;;;;;19.48;50.95;99782.41;5110607;28;20228;-66
2022/10/15 10:06:22;;;;;;;3.30;2.17;;;;;;;19.53;50.56;99789.75;5110427;28;20200;-62
2022/10/15 10:08:54;;;;;;;4.33;1.83;;;;;;;19.33;51.72;99778.72;5110288;28;20242;-63
2022/10/15 10:11:23;;;;;;;2.20;1.60;;;;;;;19.08;50.34;99781.13;5110584;28;20207;-63
2022/10/15 10:13:54;;;;;;;2.07;1.43;;;;;;;19.43;51.20;99782.03;5110174;28;20201;-66
2022/10/15 10:16:22;;;;;;;2.53;1.57;;;;;;;19.63;50.34;99780.91;5110612;28;20216;-64
2022/10/15 10:19:04;;;;;;;2.67;1.60;;;;;;;19.49;51.38;99776.28;5110234;28;20215;-65
2022/10/15 10:21:32;;;;;;;2.33;1.90;;;;;;;19.64;49.63;99779.13;5110028;28;20229;-63
2022/10/15 10:24:19;;;;;;;3.37;2.47;;;;;;;19.84;49.44;99784.97;5110096;28;20203;-62
2022/10/15 10:26:48;;;;;;;8.97;3.70;;;;;;;20.22;51.08;99783.69;5110350;28;20580;-63
2022/10/15 10:29:19;;;;;;;1.70;1.30;;;;;;;20.24;50.46;99773.94;5109983;28;20661;-62
2022/10/15 10:31:50;;;;;;;2.87;1.90;;;;;;;20.21;49.60;99773.44;5110067;28;20227;-63
2022/10/15 10:34:22;;;;;;;1.63;1.43;;;;;;;20.20;48.46;99769.22;5110154;28;20194;-64
2022/10/15 10:36:51;;;;;;;1.40;1.00;;;;;;;19.85;49.60;99776.19;5110386;28;20218;-67
2022/10/15 10:39:26;;;;;;;1.97;1.27;;;;;;;20.00;50.14;99776.44;5110073;28;20221;-68
2022/10/15 10:41:55;;;;;;;1.77;1.17;;;;;;;19.95;49.87;99774.28;5112448;28;20303;-62
2022/10/15 10:44:27;;;;;;;1.07;0.87;;;;;;;19.87;49.38;99771.69;5114137;28;20198;-66
2022/10/15 10:47:14;;;;;;;1.20;1.10;;;;;;;20.01;49.47;99773.69;5114437;28;20221;-63
2022/10/15 10:49:42;;;;;;;2.23;1.70;;;;;;;19.96;49.72;99765.56;5114465;28;20205;-63
2022/10/15 10:52:24;;;;;;;1.17;1.10;;;;;;;20.02;50.08;99770.13;5114222;28;20214;-66
2022/10/15 10:55:00;;;;;;;2.20;1.27;;;;;;;20.03;49.11;99761.38;5113599;28;20209;-66
2022/10/15 10:57:39;;;;;;;1.07;0.80;;;;;;;19.07;50.57;99758.75;5113582;28;20232;-65
2022/10/15 11:00:07;;;;;;;0.80;0.80;;;;;;;19.01;52.20;99754.16;5114272;28;20736;-63
2022/10/15 11:02:37;;;;;;;1.00;0.87;;;;;;;19.14;52.24;99754.63;5113548;28;20215;-63
2022/10/15 11:05:05;;;;;;;0.97;0.97;;;;;;;19.36;50.93;99748.13;5113228;28;20196;-64
2022/10/15 11:07:41;;;;;;;2.57;1.20;;;;;;;19.42;52.32;99746.72;5112311;28;20468;-63
2022/10/15 11:10:18;;;;;;;2.97;1.40;;;;;;;18.81;50.98;99742.31;5111895;28;20225;-63
2022/10/15 11:12:57;;;;;;;0.90;0.90;;;;;;;19.08;51.72;99744.84;5112470;28;20219;-63
2022/10/15 11:15:36;;;;;;;1.57;1.13;;;;;;;19.41;50.88;99737.31;5113653;28;20196;-61
2022/10/15 11:18:21;;;;;;;3.57;1.30;;;;;;;19.57;50.90;99734.00;5114085;28;20249;-63
2022/10/15 11:20:58;;;;;;;1.03;0.83;;;;;;;19.82;50.43;99733.19;5113457;28;20236;-63
2022/10/15 11:23:45;;;;;;;1.10;1.00;;;;;;;19.66;50.85;99738.28;5113404;28;20217;-60
2022/10/15 11:26:30;;;;;;;2.53;1.50;;;;;;;19.96;50.58;99734.41;5113480;28;20189;-63
2022/10/15 11:29:09;;;;;;;0.97;0.90;;;;;;;19.88;49.80;99732.59;5113352;28;20226;-63
2022/10/15 11:31:42;;;;;;;1.00;0.90;;;;;;;19.82;49.42;99724.63;5113977;28;20214;-61
2022/10/15 11:34:25;;;;;;;2.63;1.23;;;;;;;19.11;50.31;99736.78;5113421;28;20186;-61
2022/10/15 11:37:10;;;;;;;1.23;0.97;;;;;;;18.86;51.87;99734.94;5113299;28;20218;-60
2022/10/15 11:39:54;;;;;;;1.07;0.90;;;;;;;18.66;52.77;99729.84;5113539;28;20457;-62
2022/10/15 11:42:28;;;;;;;1.00;0.90;;;;;;;19.16;52.12;99731.94;5112904;28;20224;-59
2022/10/15 11:45:24;;;;;;;0.80;0.80;;;;;;;18.95;52.40;99728.84;5112494;28;20193;-59
2022/10/15 11:47:58;;;;;;;0.90;0.80;;;;;;;18.63;52.79;99727.56;5113447;28;20235;-63
2022/10/15 11:50:30;;;;;;;5.00;0.97;;;;;;;18.41;53.58;99730.53;5113074;27;20699;-63